sensor_id;sensor_type;location;lat;lon;timestamp;P1;durP1;ratioP1;P2;durP2;ratioP2
72275;SDS011;61204;49.980;8.358;2023-12-28T00:01:40;19.00;;;7.97;;
72275;SDS011;61204;49.980;8.358;2023-12-28T00:04:05;13.43;;;7.45;;
72275;SDS011;61204;49.980;8.358;2023-12-28T00:06:31;19.65;;;10.52;;
72275;SDS011;61204;49.980;8.358;2023-12-28T00:08:56;14.70;;;8.48;;
72275;SDS011;61204;49.980;8.358;2023-12-28T00:11:22;11.32;;;7.90;;
72275;SDS011;61204;49.980;8.358;2023-12-28T00:13:48;15.07;;;8.75;;
72275;SDS011;61204;49.980;8.358;2023-12-28T00:16:14;13.65;;;8.70;;
72275;SDS011;61204;49.980;8.358;2023-12-28T00:18:39;16.55;;;8.93;;
72275;SDS011;61204;49.980;8.358;2023-12-28T00:21:07;14.60;;;9.25;;
72275;SDS011;61204;49.980;8.358;2023-12-28T00:23:35;16.40;;;9.20;;
72275;SDS011;61204;49.980;8.358;2023-12-28T00:26:01;16.40;;;8.98;;
72275;SDS011;61204;49.980;8.358;2023-12-28T00:28:26;14.27;;;9.18;;
72275;SDS011;61204;49.980;8.358;2023-12-28T00:30:53;15.00;;;9.38;;
72275;SDS011;61204;49.980;8.358;2023-12-28T00:33:18;16.00;;;9.45;;
72275;SDS011;61204;49.980;8.358;2023-12-28T00:35:44;19.05;;;9.65;;
72275;SDS011;61204;49.980;8.358;2023-12-28T00:38:09;17.27;;;7.82;;
72275;SDS011;61204;49.980;8.358;2023-12-28T00:40:37;13.90;;;8.60;;
72275;SDS011;61204;49.980;8.358;2023-12-28T00:43:03;12.10;;;7.57;;
72275;SDS011;61204;49.980;8.358;2023-12-28T00:45:30;13.02;;;7.63;;
72275;SDS011;61204;49.980;8.358;2023-12-28T00:47:58;10.73;;;6.38;;
72275;SDS011;61204;49.980;8.358;2023-12-28T00:50:23;8.35;;;5.90;;
72275;SDS011;61204;49.980;8.358;2023-12-28T00:52:52;9.75;;;5.43;;
72275;SDS011;61204;49.980;8.358;2023-12-28T00:55:17;9.02;;;6.22;;
72275;SDS011;61204;49.980;8.358;2023-12-28T00:57:43;11.73;;;5.97;;
72275;SDS011;61204;49.980;8.358;2023-12-28T01:00:11;7.95;;;5.15;;
72275;SDS011;61204;49.980;8.358;2023-12-28T01:02:37;9.38;;;5.63;;
72275;SDS011;61204;49.980;8.358;2023-12-28T01:05:02;8.82;;;5.47;;
72275;SDS011;61204;49.980;8.358;2023-12-28T01:07:31;10.13;;;5.20;;
72275;SDS011;61204;49.980;8.358;2023-12-28T01:09:56;6.65;;;4.53;;
72275;SDS011;61204;49.980;8.358;2023-12-28T01:12:24;8.45;;;4.80;;
72275;SDS011;61204;49.980;8.358;2023-12-28T01:14:52;7.50;;;5.22;;
72275;SDS011;61204;49.980;8.358;2023-12-28T01:17:18;6.57;;;4.50;;
72275;SDS011;61204;49.980;8.358;2023-12-28T01:19:46;8.57;;;4.82;;
72275;SDS011;61204;49.980;8.358;2023-12-28T01:22:12;6.70;;;4.57;;
72275;SDS011;61204;49.980;8.358;2023-12-28T01:24:37;7.78;;;4.07;;
72275;SDS011;61204;49.980;8.358;2023-12-28T01:27:05;7.38;;;4.60;;
72275;SDS011;61204;49.980;8.358;2023-12-28T01:29:33;4.90;;;3.75;;
72275;SDS011;61204;49.980;8.358;2023-12-28T01:31:59;7.85;;;3.55;;
72275;SDS011;61204;49.980;8.358;2023-12-28T01:34:25;5.95;;;3.83;;
72275;SDS011;61204;49.980;8.358;2023-12-28T01:36:50;5.25;;;3.92;;
72275;SDS011;61204;49.980;8.358;2023-12-28T01:39:18;5.07;;;3.53;;
72275;SDS011;61204;49.980;8.358;2023-12-28T01:41:44;8.75;;;4.07;;
72275;SDS011;61204;49.980;8.358;2023-12-28T01:44:12;7.07;;;3.60;;
72275;SDS011;61204;49.980;8.358;2023-12-28T01:46:40;6.55;;;3.72;;
72275;SDS011;61204;49.980;8.358;2023-12-28T01:49:07;5.82;;;3.65;;
72275;SDS011;61204;49.980;8.358;2023-12-28T01:51:33;8.05;;;4.43;;
72275;SDS011;61204;49.980;8.358;2023-12-28T01:54:01;14.75;;;7.03;;
72275;SDS011;61204;49.980;8.358;2023-12-28T01:56:27;10.65;;;5.88;;
72275;SDS011;61204;49.980;8.358;2023-12-28T01:58:53;11.30;;;5.65;;
72275;SDS011;61204;49.980;8.358;2023-12-28T02:01:19;14.20;;;6.80;;
72275;SDS011;61204;49.980;8.358;2023-12-28T02:03:46;10.82;;;6.28;;
72275;SDS011;61204;49.980;8.358;2023-12-28T02:06:14;9.63;;;5.97;;
72275;SDS011;61204;49.980;8.358;2023-12-28T02:08:44;14.07;;;6.07;;
72275;SDS011;61204;49.980;8.358;2023-12-28T02:11:09;11.57;;;5.93;;
72275;SDS011;61204;49.980;8.358;2023-12-28T02:13:36;11.40;;;5.03;;
72275;SDS011;61204;49.980;8.358;2023-12-28T02:16:03;8.75;;;4.50;;
72275;SDS011;61204;49.980;8.358;2023-12-28T02:18:44;9.13;;;5.53;;
72275;SDS011;61204;49.980;8.358;2023-12-28T02:21:20;10.65;;;6.35;;
72275;SDS011;61204;49.980;8.358;2023-12-28T02:23:47;11.07;;;6.43;;
72275;SDS011;61204;49.980;8.358;2023-12-28T02:26:15;10.90;;;5.63;;
72275;SDS011;61204;49.980;8.358;2023-12-28T02:28:44;8.95;;;6.00;;
72275;SDS011;61204;49.980;8.358;2023-12-28T02:31:20;9.43;;;6.07;;
72275;SDS011;61204;49.980;8.358;2023-12-28T02:34:01;9.27;;;5.95;;
72275;SDS011;61204;49.980;8.358;2023-12-28T02:36:44;10.82;;;5.95;;
72275;SDS011;61204;49.980;8.358;2023-12-28T02:39:13;9.70;;;5.88;;
72275;SDS011;61204;49.980;8.358;2023-12-28T02:41:42;11.57;;;6.60;;
72275;SDS011;61204;49.980;8.358;2023-12-28T02:44:10;14.70;;;7.95;;
72275;SDS011;61204;49.980;8.358;2023-12-28T02:46:38;16.50;;;8.02;;
72275;SDS011;61204;49.980;8.358;2023-12-28T02:49:03;16.80;;;7.68;;
72275;SDS011;61204;49.980;8.358;2023-12-28T02:51:29;10.55;;;6.32;;
72275;SDS011;61204;49.980;8.358;2023-12-28T02:53:54;10.77;;;5.72;;
72275;SDS011;61204;49.980;8.358;2023-12-28T02:56:22;7.80;;;4.90;;
72275;SDS011;61204;49.980;8.358;2023-12-28T02:58:50;10.25;;;5.13;;
72275;SDS011;61204;49.980;8.358;2023-12-28T03:01:18;8.07;;;4.28;;
72275;SDS011;61204;49.980;8.358;2023-12-28T03:03:43;6.68;;;3.83;;
72275;SDS011;61204;49.980;8.358;2023-12-28T03:06:09;8.82;;;3.90;;
72275;SDS011;61204;49.980;8.358;2023-12-28T03:08:34;7.85;;;3.92;;
72275;SDS011;61204;49.980;8.358;2023-12-28T03:11:02;5.22;;;3.05;;
72275;SDS011;61204;49.980;8.358;2023-12-28T03:13:28;6.00;;;3.58;;
72275;SDS011;61204;49.980;8.358;2023-12-28T03:15:53;5.63;;;3.47;;
72275;SDS011;61204;49.980;8.358;2023-12-28T03:18:19;5.43;;;3.05;;
72275;SDS011;61204;49.980;8.358;2023-12-28T03:20:44;9.70;;;3.38;;
72275;SDS011;61204;49.980;8.358;2023-12-28T03:23:11;5.75;;;3.25;;
72275;SDS011;61204;49.980;8.358;2023-12-28T03:25:39;4.20;;;2.70;;
72275;SDS011;61204;49.980;8.358;2023-12-28T03:28:05;4.32;;;2.78;;
72275;SDS011;61204;49.980;8.358;2023-12-28T03:30:30;4.43;;;2.90;;
72275;SDS011;61204;49.980;8.358;2023-12-28T03:32:56;4.68;;;2.42;;
72275;SDS011;61204;49.980;8.358;2023-12-28T03:35:22;11.30;;;2.80;;
72275;SDS011;61204;49.980;8.358;2023-12-28T03:37:50;5.35;;;2.30;;
72275;SDS011;61204;49.980;8.358;2023-12-28T03:40:15;7.07;;;2.75;;
72275;SDS011;61204;49.980;8.358;2023-12-28T03:42:41;5.03;;;2.58;;
72275;SDS011;61204;49.980;8.358;2023-12-28T03:45:07;5.43;;;3.00;;
72275;SDS011;61204;49.980;8.358;2023-12-28T03:47:36;5.72;;;2.63;;
72275;SDS011;61204;49.980;8.358;2023-12-28T03:50:02;4.35;;;3.53;;
72275;SDS011;61204;49.980;8.358;2023-12-28T03:52:28;5.65;;;2.63;;
72275;SDS011;61204;49.980;8.358;2023-12-28T03:54:55;3.95;;;2.58;;
72275;SDS011;61204;49.980;8.358;2023-12-28T03:57:23;3.60;;;2.70;;
72275;SDS011;61204;49.980;8.358;2023-12-28T03:59:50;4.57;;;2.65;;
72275;SDS011;61204;49.980;8.358;2023-12-28T04:02:16;4.28;;;2.83;;
72275;SDS011;61204;49.980;8.358;2023-12-28T04:04:41;4.70;;;2.78;;
72275;SDS011;61204;49.980;8.358;2023-12-28T04:07:09;4.55;;;3.15;;
72275;SDS011;61204;49.980;8.358;2023-12-28T04:09:35;5.20;;;3.05;;
72275;SDS011;61204;49.980;8.358;2023-12-28T04:12:02;3.65;;;2.38;;
72275;SDS011;61204;49.980;8.358;2023-12-28T04:14:32;6.45;;;2.90;;
72275;SDS011;61204;49.980;8.358;2023-12-28T04:17:00;3.40;;;2.22;;
72275;SDS011;61204;49.980;8.358;2023-12-28T04:19:27;4.88;;;2.95;;
72275;SDS011;61204;49.980;8.358;2023-12-28T04:21:52;6.65;;;3.03;;
72275;SDS011;61204;49.980;8.358;2023-12-28T04:24:18;8.02;;;3.22;;
72275;SDS011;61204;49.980;8.358;2023-12-28T04:26:46;3.85;;;2.67;;
72275;SDS011;61204;49.980;8.358;2023-12-28T04:29:11;4.35;;;2.45;;
72275;SDS011;61204;49.980;8.358;2023-12-28T04:31:40;4.13;;;2.50;;
72275;SDS011;61204;49.980;8.358;2023-12-28T04:34:10;3.60;;;2.42;;
72275;SDS011;61204;49.980;8.358;2023-12-28T04:36:42;3.58;;;2.47;;
72275;SDS011;61204;49.980;8.358;2023-12-28T04:39:10;4.05;;;2.78;;
72275;SDS011;61204;49.980;8.358;2023-12-28T04:41:35;4.72;;;2.97;;
72275;SDS011;61204;49.980;8.358;2023-12-28T04:44:01;4.43;;;2.72;;
72275;SDS011;61204;49.980;8.358;2023-12-28T04:46:26;3.80;;;2.20;;
72275;SDS011;61204;49.980;8.358;2023-12-28T04:48:52;4.50;;;2.63;;
72275;SDS011;61204;49.980;8.358;2023-12-28T04:51:17;4.15;;;2.50;;
72275;SDS011;61204;49.980;8.358;2023-12-28T04:53:43;6.63;;;2.78;;
72275;SDS011;61204;49.980;8.358;2023-12-28T04:56:09;4.00;;;2.70;;
72275;SDS011;61204;49.980;8.358;2023-12-28T04:58:36;4.63;;;2.42;;
72275;SDS011;61204;49.980;8.358;2023-12-28T05:01:04;5.10;;;2.22;;
72275;SDS011;61204;49.980;8.358;2023-12-28T05:03:32;5.43;;;2.70;;
72275;SDS011;61204;49.980;8.358;2023-12-28T05:05:57;3.88;;;2.20;;
72275;SDS011;61204;49.980;8.358;2023-12-28T05:08:23;4.38;;;2.60;;
72275;SDS011;61204;49.980;8.358;2023-12-28T05:10:48;4.72;;;2.65;;
72275;SDS011;61204;49.980;8.358;2023-12-28T05:13:14;3.22;;;2.50;;
72275;SDS011;61204;49.980;8.358;2023-12-28T05:15:40;5.30;;;2.70;;
72275;SDS011;61204;49.980;8.358;2023-12-28T05:18:07;3.28;;;2.40;;
72275;SDS011;61204;49.980;8.358;2023-12-28T05:20:33;3.80;;;2.50;;
72275;SDS011;61204;49.980;8.358;2023-12-28T05:23:01;4.78;;;2.40;;
72275;SDS011;61204;49.980;8.358;2023-12-28T05:25:27;4.57;;;2.80;;
72275;SDS011;61204;49.980;8.358;2023-12-28T05:27:52;5.93;;;2.42;;
72275;SDS011;61204;49.980;8.358;2023-12-28T05:30:18;4.75;;;2.80;;
72275;SDS011;61204;49.980;8.358;2023-12-28T05:32:44;4.00;;;2.60;;
72275;SDS011;61204;49.980;8.358;2023-12-28T05:35:09;3.63;;;2.08;;
72275;SDS011;61204;49.980;8.358;2023-12-28T05:37:35;5.95;;;2.60;;
72275;SDS011;61204;49.980;8.358;2023-12-28T05:40:00;5.45;;;2.47;;
72275;SDS011;61204;49.980;8.358;2023-12-28T05:42:26;5.22;;;2.92;;
72275;SDS011;61204;49.980;8.358;2023-12-28T05:44:52;5.47;;;2.47;;
72275;SDS011;61204;49.980;8.358;2023-12-28T05:47:17;5.38;;;2.40;;
72275;SDS011;61204;49.980;8.358;2023-12-28T05:49:43;4.85;;;2.45;;
72275;SDS011;61204;49.980;8.358;2023-12-28T05:52:08;4.72;;;2.70;;
72275;SDS011;61204;49.980;8.358;2023-12-28T05:54:34;6.90;;;2.78;;
72275;SDS011;61204;49.980;8.358;2023-12-28T05:57:00;5.10;;;2.90;;
72275;SDS011;61204;49.980;8.358;2023-12-28T05:59:25;5.00;;;2.45;;
72275;SDS011;61204;49.980;8.358;2023-12-28T06:01:51;4.97;;;2.53;;
72275;SDS011;61204;49.980;8.358;2023-12-28T06:04:17;4.55;;;2.38;;
72275;SDS011;61204;49.980;8.358;2023-12-28T06:06:44;3.47;;;2.60;;
72275;SDS011;61204;49.980;8.358;2023-12-28T06:09:12;4.15;;;2.25;;
72275;SDS011;61204;49.980;8.358;2023-12-28T06:11:38;3.05;;;2.30;;
72275;SDS011;61204;49.980;8.358;2023-12-28T06:14:03;4.35;;;2.35;;
72275;SDS011;61204;49.980;8.358;2023-12-28T06:16:29;3.30;;;2.38;;
72275;SDS011;61204;49.980;8.358;2023-12-28T06:18:57;3.20;;;2.30;;
72275;SDS011;61204;49.980;8.358;2023-12-28T06:21:23;3.45;;;2.17;;
72275;SDS011;61204;49.980;8.358;2023-12-28T06:23:49;4.90;;;2.45;;
72275;SDS011;61204;49.980;8.358;2023-12-28T06:26:14;3.75;;;2.70;;
72275;SDS011;61204;49.980;8.358;2023-12-28T06:28:42;5.55;;;3.38;;
72275;SDS011;61204;49.980;8.358;2023-12-28T06:31:07;4.43;;;3.35;;
72275;SDS011;61204;49.980;8.358;2023-12-28T06:33:33;5.95;;;2.55;;
72275;SDS011;61204;49.980;8.358;2023-12-28T06:36:04;3.10;;;2.30;;
72275;SDS011;61204;49.980;8.358;2023-12-28T06:38:31;3.78;;;2.33;;
72275;SDS011;61204;49.980;8.358;2023-12-28T06:40:58;5.15;;;2.55;;
72275;SDS011;61204;49.980;8.358;2023-12-28T06:43:23;3.05;;;2.17;;
72275;SDS011;61204;49.980;8.358;2023-12-28T06:45:49;2.78;;;2.08;;
72275;SDS011;61204;49.980;8.358;2023-12-28T06:48:16;4.88;;;2.20;;
72275;SDS011;61204;49.980;8.358;2023-12-28T06:50:42;3.80;;;2.05;;
72275;SDS011;61204;49.980;8.358;2023-12-28T06:53:07;2.92;;;1.88;;
72275;SDS011;61204;49.980;8.358;2023-12-28T06:55:33;4.07;;;2.03;;
72275;SDS011;61204;49.980;8.358;2023-12-28T06:57:59;4.15;;;2.35;;
72275;SDS011;61204;49.980;8.358;2023-12-28T07:00:25;2.90;;;1.80;;
72275;SDS011;61204;49.980;8.358;2023-12-28T07:02:51;3.05;;;1.77;;
72275;SDS011;61204;49.980;8.358;2023-12-28T07:05:16;3.58;;;1.70;;
72275;SDS011;61204;49.980;8.358;2023-12-28T07:07:42;3.08;;;1.90;;
72275;SDS011;61204;49.980;8.358;2023-12-28T07:10:07;2.70;;;1.58;;
72275;SDS011;61204;49.980;8.358;2023-12-28T07:12:33;2.03;;;1.55;;
72275;SDS011;61204;49.980;8.358;2023-12-28T07:14:59;3.42;;;1.80;;
72275;SDS011;61204;49.980;8.358;2023-12-28T07:17:24;2.83;;;1.80;;
72275;SDS011;61204;49.980;8.358;2023-12-28T07:19:50;2.83;;;1.58;;
72275;SDS011;61204;49.980;8.358;2023-12-28T07:22:15;2.28;;;1.50;;
72275;SDS011;61204;49.980;8.358;2023-12-28T07:24:41;3.22;;;1.70;;
72275;SDS011;61204;49.980;8.358;2023-12-28T07:27:10;2.67;;;1.90;;
72275;SDS011;61204;49.980;8.358;2023-12-28T07:29:35;2.90;;;1.95;;
72275;SDS011;61204;49.980;8.358;2023-12-28T07:32:04;4.15;;;1.88;;
72275;SDS011;61204;49.980;8.358;2023-12-28T07:34:29;2.88;;;1.90;;
72275;SDS011;61204;49.980;8.358;2023-12-28T07:36:55;3.72;;;3.33;;
72275;SDS011;61204;49.980;8.358;2023-12-28T07:39:20;3.78;;;1.95;;
72275;SDS011;61204;49.980;8.358;2023-12-28T07:41:46;2.35;;;1.92;;
72275;SDS011;61204;49.980;8.358;2023-12-28T07:44:12;2.85;;;1.77;;
72275;SDS011;61204;49.980;8.358;2023-12-28T07:46:37;4.60;;;2.25;;
72275;SDS011;61204;49.980;8.358;2023-12-28T07:49:03;2.97;;;1.73;;
72275;SDS011;61204;49.980;8.358;2023-12-28T07:51:30;2.85;;;1.83;;
72275;SDS011;61204;49.980;8.358;2023-12-28T07:53:56;3.45;;;2.22;;
72275;SDS011;61204;49.980;8.358;2023-12-28T07:56:21;3.42;;;2.25;;
72275;SDS011;61204;49.980;8.358;2023-12-28T07:58:47;2.65;;;2.00;;
72275;SDS011;61204;49.980;8.358;2023-12-28T08:01:12;4.78;;;2.08;;
72275;SDS011;61204;49.980;8.358;2023-12-28T08:03:38;5.30;;;2.25;;
72275;SDS011;61204;49.980;8.358;2023-12-28T08:06:05;2.53;;;2.15;;
72275;SDS011;61204;49.980;8.358;2023-12-28T08:08:37;3.97;;;1.83;;
72275;SDS011;61204;49.980;8.358;2023-12-28T08:11:03;3.55;;;2.30;;
72275;SDS011;61204;49.980;8.358;2023-12-28T08:13:29;4.65;;;2.17;;
72275;SDS011;61204;49.980;8.358;2023-12-28T08:15:54;3.60;;;2.17;;
72275;SDS011;61204;49.980;8.358;2023-12-28T08:18:20;5.38;;;2.30;;
72275;SDS011;61204;49.980;8.358;2023-12-28T08:20:45;3.67;;;2.00;;
72275;SDS011;61204;49.980;8.358;2023-12-28T08:23:11;2.53;;;2.10;;
72275;SDS011;61204;49.980;8.358;2023-12-28T08:25:39;5.25;;;2.13;;
72275;SDS011;61204;49.980;8.358;2023-12-28T08:28:04;3.95;;;2.05;;
72275;SDS011;61204;49.980;8.358;2023-12-28T08:30:30;5.05;;;2.25;;
72275;SDS011;61204;49.980;8.358;2023-12-28T08:32:56;4.10;;;2.42;;
72275;SDS011;61204;49.980;8.358;2023-12-28T08:35:21;7.15;;;2.20;;
72275;SDS011;61204;49.980;8.358;2023-12-28T08:37:47;4.15;;;2.75;;
72275;SDS011;61204;49.980;8.358;2023-12-28T08:40:13;6.07;;;2.30;;
72275;SDS011;61204;49.980;8.358;2023-12-28T08:42:41;3.58;;;2.30;;
72275;SDS011;61204;49.980;8.358;2023-12-28T08:45:09;3.45;;;2.28;;
72275;SDS011;61204;49.980;8.358;2023-12-28T08:47:34;4.03;;;2.67;;
72275;SDS011;61204;49.980;8.358;2023-12-28T08:50:00;4.80;;;2.17;;
72275;SDS011;61204;49.980;8.358;2023-12-28T08:52:26;2.55;;;2.20;;
72275;SDS011;61204;49.980;8.358;2023-12-28T08:54:51;5.78;;;2.42;;
72275;SDS011;61204;49.980;8.358;2023-12-28T08:57:17;4.97;;;2.25;;
72275;SDS011;61204;49.980;8.358;2023-12-28T08:59:42;6.43;;;2.28;;
72275;SDS011;61204;49.980;8.358;2023-12-28T09:02:08;4.72;;;2.42;;
72275;SDS011;61204;49.980;8.358;2023-12-28T09:04:33;5.25;;;2.95;;
72275;SDS011;61204;49.980;8.358;2023-12-28T09:06:59;4.43;;;1.88;;
72275;SDS011;61204;49.980;8.358;2023-12-28T09:09:27;4.32;;;2.42;;
72275;SDS011;61204;49.980;8.358;2023-12-28T09:11:53;3.20;;;2.17;;
72275;SDS011;61204;49.980;8.358;2023-12-28T09:14:19;4.30;;;1.63;;
72275;SDS011;61204;49.980;8.358;2023-12-28T09:16:46;2.53;;;1.70;;
72275;SDS011;61204;49.980;8.358;2023-12-28T09:19:13;4.57;;;2.60;;
72275;SDS011;61204;49.980;8.358;2023-12-28T09:21:39;3.40;;;2.05;;
72275;SDS011;61204;49.980;8.358;2023-12-28T09:24:06;5.20;;;1.90;;
72275;SDS011;61204;49.980;8.358;2023-12-28T09:26:32;3.40;;;1.80;;
72275;SDS011;61204;49.980;8.358;2023-12-28T09:28:59;3.95;;;1.92;;
72275;SDS011;61204;49.980;8.358;2023-12-28T09:31:25;5.70;;;1.85;;
72275;SDS011;61204;49.980;8.358;2023-12-28T09:33:52;3.30;;;1.73;;
72275;SDS011;61204;49.980;8.358;2023-12-28T09:36:18;3.67;;;2.20;;
72275;SDS011;61204;49.980;8.358;2023-12-28T09:38:43;3.63;;;2.38;;
72275;SDS011;61204;49.980;8.358;2023-12-28T09:41:12;3.50;;;1.90;;
72275;SDS011;61204;49.980;8.358;2023-12-28T09:43:53;2.65;;;1.52;;
72275;SDS011;61204;49.980;8.358;2023-12-28T09:46:25;3.33;;;2.05;;
72275;SDS011;61204;49.980;8.358;2023-12-28T09:48:54;4.25;;;1.60;;
72275;SDS011;61204;49.980;8.358;2023-12-28T09:51:21;4.07;;;1.80;;
72275;SDS011;61204;49.980;8.358;2023-12-28T09:53:47;5.55;;;1.95;;
72275;SDS011;61204;49.980;8.358;2023-12-28T09:56:13;2.67;;;1.63;;
72275;SDS011;61204;49.980;8.358;2023-12-28T09:58:42;2.55;;;1.60;;
72275;SDS011;61204;49.980;8.358;2023-12-28T10:01:14;3.60;;;1.90;;
72275;SDS011;61204;49.980;8.358;2023-12-28T10:03:40;4.90;;;1.70;;
72275;SDS011;61204;49.980;8.358;2023-12-28T10:06:06;5.35;;;2.20;;
72275;SDS011;61204;49.980;8.358;2023-12-28T10:08:31;3.38;;;1.88;;
72275;SDS011;61204;49.980;8.358;2023-12-28T10:10:57;2.10;;;1.55;;
72275;SDS011;61204;49.980;8.358;2023-12-28T10:13:24;4.03;;;2.17;;
72275;SDS011;61204;49.980;8.358;2023-12-28T10:15:52;4.57;;;2.10;;
72275;SDS011;61204;49.980;8.358;2023-12-28T10:18:23;3.85;;;1.88;;
72275;SDS011;61204;49.980;8.358;2023-12-28T10:20:49;2.42;;;1.52;;
72275;SDS011;61204;49.980;8.358;2023-12-28T10:23:19;3.25;;;1.60;;
72275;SDS011;61204;49.980;8.358;2023-12-28T10:25:48;4.40;;;1.95;;
72275;SDS011;61204;49.980;8.358;2023-12-28T10:28:21;3.08;;;1.50;;
72275;SDS011;61204;49.980;8.358;2023-12-28T10:30:46;2.97;;;1.60;;
72275;SDS011;61204;49.980;8.358;2023-12-28T10:33:19;4.15;;;1.83;;
72275;SDS011;61204;49.980;8.358;2023-12-28T10:35:45;6.05;;;1.60;;
72275;SDS011;61204;49.980;8.358;2023-12-28T10:38:10;4.93;;;1.63;;
72275;SDS011;61204;49.980;8.358;2023-12-28T10:40:41;2.53;;;1.30;;
72275;SDS011;61204;49.980;8.358;2023-12-28T10:43:11;2.65;;;1.45;;
72275;SDS011;61204;49.980;8.358;2023-12-28T10:45:41;3.53;;;1.63;;
72275;SDS011;61204;49.980;8.358;2023-12-28T10:48:15;2.17;;;1.45;;
72275;SDS011;61204;49.980;8.358;2023-12-28T10:50:54;2.67;;;1.50;;
72275;SDS011;61204;49.980;8.358;2023-12-28T10:53:48;5.07;;;1.63;;
72275;SDS011;61204;49.980;8.358;2023-12-28T10:56:56;2.75;;;1.50;;
72275;SDS011;61204;49.980;8.358;2023-12-28T11:02:39;2.63;;;1.40;;
72275;SDS011;61204;49.980;8.358;2023-12-28T11:05:13;4.75;;;1.73;;
72275;SDS011;61204;49.980;8.358;2023-12-28T11:10:14;3.05;;;1.60;;
72275;SDS011;61204;49.980;8.358;2023-12-28T11:12:44;3.15;;;1.52;;
72275;SDS011;61204;49.980;8.358;2023-12-28T11:15:12;4.47;;;1.65;;
72275;SDS011;61204;49.980;8.358;2023-12-28T11:17:40;4.13;;;1.40;;
72275;SDS011;61204;49.980;8.358;2023-12-28T11:20:10;2.28;;;1.30;;
72275;SDS011;61204;49.980;8.358;2023-12-28T11:22:38;3.80;;;1.17;;
72275;SDS011;61204;49.980;8.358;2023-12-28T11:25:06;2.85;;;1.48;;
72275;SDS011;61204;49.980;8.358;2023-12-28T11:27:43;2.58;;;1.48;;
72275;SDS011;61204;49.980;8.358;2023-12-28T11:30:11;2.33;;;1.38;;
72275;SDS011;61204;49.980;8.358;2023-12-28T11:32:39;2.88;;;1.30;;
72275;SDS011;61204;49.980;8.358;2023-12-28T11:35:13;2.78;;;1.23;;
72275;SDS011;61204;49.980;8.358;2023-12-28T11:37:46;3.22;;;1.20;;
72275;SDS011;61204;49.980;8.358;2023-12-28T11:40:18;2.97;;;1.50;;
72275;SDS011;61204;49.980;8.358;2023-12-28T11:43:02;3.75;;;1.17;;
72275;SDS011;61204;49.980;8.358;2023-12-28T11:45:28;3.50;;;1.38;;
72275;SDS011;61204;49.980;8.358;2023-12-28T11:47:59;2.45;;;1.20;;
72275;SDS011;61204;49.980;8.358;2023-12-28T11:50:26;5.85;;;1.70;;
72275;SDS011;61204;49.980;8.358;2023-12-28T11:52:52;2.97;;;1.08;;
72275;SDS011;61204;49.980;8.358;2023-12-28T11:55:21;2.53;;;1.45;;
72275;SDS011;61204;49.980;8.358;2023-12-28T11:57:48;4.40;;;1.10;;
72275;SDS011;61204;49.980;8.358;2023-12-28T12:00:14;1.75;;;1.10;;
72275;SDS011;61204;49.980;8.358;2023-12-28T12:02:43;2.92;;;1.00;;
72275;SDS011;61204;49.980;8.358;2023-12-28T12:05:14;5.15;;;1.50;;
72275;SDS011;61204;49.980;8.358;2023-12-28T12:07:42;4.32;;;1.13;;
72275;SDS011;61204;49.980;8.358;2023-12-28T12:10:08;2.58;;;1.23;;
72275;SDS011;61204;49.980;8.358;2023-12-28T12:12:40;3.22;;;1.10;;
72275;SDS011;61204;49.980;8.358;2023-12-28T12:15:07;3.30;;;1.85;;
72275;SDS011;61204;49.980;8.358;2023-12-28T12:17:34;3.38;;;1.50;;
72275;SDS011;61204;49.980;8.358;2023-12-28T12:19:59;4.63;;;1.63;;
72275;SDS011;61204;49.980;8.358;2023-12-28T12:22:27;8.63;;;3.90;;
72275;SDS011;61204;49.980;8.358;2023-12-28T12:24:56;3.75;;;1.65;;
72275;SDS011;61204;49.980;8.358;2023-12-28T12:27:31;3.08;;;1.35;;
72275;SDS011;61204;49.980;8.358;2023-12-28T12:29:57;14.13;;;6.30;;
72275;SDS011;61204;49.980;8.358;2023-12-28T12:32:24;2.33;;;1.27;;
72275;SDS011;61204;49.980;8.358;2023-12-28T12:34:52;3.78;;;1.60;;
72275;SDS011;61204;49.980;8.358;2023-12-28T12:37:20;5.30;;;1.45;;
72275;SDS011;61204;49.980;8.358;2023-12-28T12:39:46;3.47;;;1.40;;
72275;SDS011;61204;49.980;8.358;2023-12-28T12:42:15;3.10;;;1.48;;
72275;SDS011;61204;49.980;8.358;2023-12-28T12:44:45;2.85;;;1.30;;
72275;SDS011;61204;49.980;8.358;2023-12-28T12:47:12;2.90;;;1.55;;
72275;SDS011;61204;49.980;8.358;2023-12-28T12:49:38;4.88;;;1.80;;
72275;SDS011;61204;49.980;8.358;2023-12-28T12:52:04;2.50;;;1.27;;
72275;SDS011;61204;49.980;8.358;2023-12-28T12:54:32;3.63;;;1.60;;
72275;SDS011;61204;49.980;8.358;2023-12-28T12:56:57;3.25;;;1.60;;
72275;SDS011;61204;49.980;8.358;2023-12-28T12:59:24;3.22;;;1.50;;
72275;SDS011;61204;49.980;8.358;2023-12-28T13:01:50;2.55;;;1.27;;
72275;SDS011;61204;49.980;8.358;2023-12-28T13:04:18;2.78;;;1.90;;
72275;SDS011;61204;49.980;8.358;2023-12-28T13:06:44;2.72;;;1.67;;
72275;SDS011;61204;49.980;8.358;2023-12-28T13:09:09;3.25;;;1.52;;
72275;SDS011;61204;49.980;8.358;2023-12-28T13:11:36;2.70;;;1.85;;
72275;SDS011;61204;49.980;8.358;2023-12-28T13:14:02;2.85;;;1.52;;
72275;SDS011;61204;49.980;8.358;2023-12-28T13:16:29;4.63;;;2.85;;
72275;SDS011;61204;49.980;8.358;2023-12-28T13:18:55;6.05;;;3.05;;
72275;SDS011;61204;49.980;8.358;2023-12-28T13:21:20;3.97;;;1.60;;
72275;SDS011;61204;49.980;8.358;2023-12-28T13:23:46;3.10;;;1.85;;
72275;SDS011;61204;49.980;8.358;2023-12-28T13:26:12;3.72;;;1.50;;
72275;SDS011;61204;49.980;8.358;2023-12-28T13:28:40;3.90;;;1.65;;
72275;SDS011;61204;49.980;8.358;2023-12-28T13:31:07;2.42;;;1.30;;
72275;SDS011;61204;49.980;8.358;2023-12-28T13:33:33;2.78;;;1.20;;
72275;SDS011;61204;49.980;8.358;2023-12-28T13:35:59;2.38;;;1.50;;
72275;SDS011;61204;49.980;8.358;2023-12-28T13:38:27;2.42;;;1.67;;
72275;SDS011;61204;49.980;8.358;2023-12-28T13:40:53;3.35;;;1.95;;
72275;SDS011;61204;49.980;8.358;2023-12-28T13:43:19;3.60;;;1.60;;
72275;SDS011;61204;49.980;8.358;2023-12-28T13:45:44;2.97;;;1.48;;
72275;SDS011;61204;49.980;8.358;2023-12-28T13:48:10;4.50;;;1.67;;
72275;SDS011;61204;49.980;8.358;2023-12-28T13:50:35;1.65;;;1.10;;
72275;SDS011;61204;49.980;8.358;2023-12-28T13:53:02;4.35;;;1.05;;
72275;SDS011;61204;49.980;8.358;2023-12-28T13:55:27;1.55;;;1.17;;
72275;SDS011;61204;49.980;8.358;2023-12-28T13:57:53;2.25;;;0.90;;
72275;SDS011;61204;49.980;8.358;2023-12-28T14:00:19;1.55;;;1.17;;
72275;SDS011;61204;49.980;8.358;2023-12-28T14:02:47;2.72;;;1.00;;
72275;SDS011;61204;49.980;8.358;2023-12-28T14:05:13;1.02;;;0.70;;
72275;SDS011;61204;49.980;8.358;2023-12-28T14:07:41;1.65;;;0.90;;
72275;SDS011;61204;49.980;8.358;2023-12-28T14:10:06;1.15;;;0.70;;
72275;SDS011;61204;49.980;8.358;2023-12-28T14:12:32;1.30;;;0.70;;
72275;SDS011;61204;49.980;8.358;2023-12-28T14:14:58;1.98;;;0.70;;
72275;SDS011;61204;49.980;8.358;2023-12-28T14:17:24;1.15;;;0.75;;
72275;SDS011;61204;49.980;8.358;2023-12-28T14:19:49;1.67;;;0.73;;
72275;SDS011;61204;49.980;8.358;2023-12-28T14:22:15;1.08;;;0.70;;
72275;SDS011;61204;49.980;8.358;2023-12-28T14:24:41;1.23;;;0.80;;
72275;SDS011;61204;49.980;8.358;2023-12-28T14:27:07;1.25;;;0.90;;
72275;SDS011;61204;49.980;8.358;2023-12-28T14:29:36;1.92;;;1.10;;
72275;SDS011;61204;49.980;8.358;2023-12-28T14:32:05;0.82;;;0.70;;
72275;SDS011;61204;49.980;8.358;2023-12-28T14:34:31;1.45;;;0.90;;
72275;SDS011;61204;49.980;8.358;2023-12-28T14:36:57;1.33;;;0.70;;
72275;SDS011;61204;49.980;8.358;2023-12-28T14:39:23;0.90;;;0.70;;
72275;SDS011;61204;49.980;8.358;2023-12-28T14:41:51;1.25;;;0.80;;
72275;SDS011;61204;49.980;8.358;2023-12-28T14:44:16;1.10;;;0.90;;
72275;SDS011;61204;49.980;8.358;2023-12-28T14:46:42;1.35;;;0.90;;
72275;SDS011;61204;49.980;8.358;2023-12-28T14:49:10;1.80;;;0.82;;
72275;SDS011;61204;49.980;8.358;2023-12-28T14:51:35;0.63;;;0.55;;